Latest Coastal Weather Observations for Bairnsdale

IDV60701

Issued at 10:41 pm EST Wednesday 20 September 2017 (issued every 10 minutes, with the page automatically refreshed every 10 minutes)

About coastal observations | Map of coastal stations | Coastal observations for VIC | Marine services | Other Formats
Station Details ID: 085279 Name: BAIRNSDALE AIRPORT Lat: -37.88 Lon: 147.57 Height: 49.4 m
Data from the previous 72 hours. | See also: Recent months at Bairnsdale
Date/Time
EST
Temp
°C
Wind Pressure Rain since
9am
mm
Weather Cloud Vis
km
Sea
Height
m
Swell
Dir  Spd
kts
Gust
kts
hPa Trend Height
m
Period
s
Dir
20/10:30pm 6.4 NNE 4 5 1016.1 - 0.0 - Clear 10 - - - -
20/10:00pm 7.1 ENE 3 4 1016.5 - 0.0 - - 10 - - - -
20/09:30pm 7.6 E 4 5 1016.3 - 0.0 - - 10 - - - -
20/09:00pm 8.2 ESE 6 6 1016.5 - 0.0 - - 10 - - - -
20/08:30pm 8.3 E 7 7 1016.6 - 0.0 - - 10 - - - -
20/08:00pm 8.9 E 6 7 1016.5 - 0.0 - - 10 - - - -
20/07:30pm 9.3 E 7 8 1016.3 - 0.0 - - 10 - - - -
20/07:00pm 8.7 ESE 8 9 1016.2 - 0.0 - - 10 - - - -
20/06:30pm 9.6 ESE 7 8 1016.3 - 0.0 - - 10 - - - -
20/06:00pm 10.6 E 7 8 1016.2 - 0.0 - - 10 - - - -
20/05:30pm 12.0 E 8 11 1016.2 - 0.0 - - 10 - - - -
20/05:00pm 13.3 ESE 8 10 1016.2 - 0.0 - - 10 - - - -
20/04:30pm 13.8 ESE 10 12 1016.3 - 0.0 - - 10 - - - -
20/04:00pm 14.5 ESE 9 11 1016.3 - 0.0 - - 10 - - - -
20/03:30pm 15.8 SSE 8 13 1016.0 - 0.0 - - 10 - - - -
20/03:00pm 17.9 SSW 6 10 1016.1 - 0.0 - Mostly cloudy 10 - - - -
20/02:30pm 17.1 SW 7 11 1016.5 - 0.0 - - 10 - - - -
20/02:00pm 16.8 SSW 10 14 1016.8 - 0.0 - - 10 - - - -
20/01:30pm 16.5 S 6 10 1017.4 - 0.0 - - 10 - - - -
20/01:00pm 16.6 SW 4 7 1017.5 - 0.0 - - 10 - - - -
20/12:30pm 16.4 SSW 7 11 1018.2 - 0.0 - - 10 - - - -
20/12:00pm 15.8 WNW 5 7 1018.8 - 0.0 - - 10 - - - -
20/11:30am 15.5 NNW 5 7 1019.1 - 0.0 - - 10 - - - -
20/11:00am 14.9 NW 6 8 1019.6 - 0.0 - - 10 - - - -
20/10:30am 14.4 NE 4 7 1020.2 - 0.0 - Partly cloudy 10 - - - -
20/10:00am 13.6 NNW 5 8 1020.8 - 0.0 - Partly cloudy 10 - - - -
20/09:30am 12.0 NNW 6 9 1021.2 - 0.0 - - 10 - - - -
20/09:00am 9.5 NW 7 9 1021.4 - 0.0 - Mostly clear 10 - - - -
20/08:30am 8.2 NW 7 9 1021.8 - 0.0 - Cloudy 10 - - - -
20/08:00am 7.8 NW 6 8 1021.8 - 0.0 - - 10 - - - -
20/07:30am 6.8 NW 7 10 1021.8 - 0.0 - - 10 - - - -
20/07:00am 5.8 NW 8 9 1021.7 - 0.0 - Partly cloudy 10 - - - -
20/06:30am 5.0 NW 8 9 1021.5 - 0.0 - Cloudy 10 - - - -
20/06:00am 5.6 NW 7 9 1021.2 - 0.0 - Cloudy 10 - - - -
20/05:30am 5.2 NW 8 9 1021.0 - 0.0 - Partly cloudy 10 - - - -
20/05:00am 3.7 NW 7 8 1020.7 - 0.0 - - 10 - - - -
20/04:30am 4.1 NW 8 9 1020.7 - 0.0 - - 10 - - - -
20/04:00am 4.7 NW 7 8 1020.6 - 0.0 - Partly cloudy 10 - - - -
20/03:30am 6.1 NW 6 8 1020.6 - 0.0 - Cloudy 10 - - - -
20/03:00am 6.5 NW 6 9 1020.9 - 0.0 - Cloudy 10 - - - -
20/02:30am 6.5 NW 6 8 1021.1 - 0.0 - Cloudy 10 - - - -
20/02:00am 7.3 WNW 8 12 1021.1 - 0.0 - Cloudy 10 - - - -
20/01:30am 7.8 W 6 9 1021.4 - 0.0 - Cloudy 10 - - - -
20/01:00am 6.1 WNW 7 8 1021.5 - 0.0 - Partly cloudy 10 - - - -
20/12:30am 6.6 W 6 7 1021.7 - 0.0 - Partly cloudy 10 - - - -
20/12:00am 6.9 W 7 8 1021.7 - 0.0 - Cloudy 10 - - - -
 
Date/Time
EST
Temp
°C
Wind Pressure Rain since
9am
mm
Weather Cloud Vis
km
Sea
Height
m
Swell
Dir  Spd
kts
Gust
kts
hPa Trend Height
m
Period
s
Dir
19/11:30pm 5.0 WNW 5 6 1021.7 - 0.0 - Partly cloudy 10 - - - -
19/11:00pm 5.3 WNW 7 8 1021.5 - 0.0 - Partly cloudy 10 - - - -
19/10:30pm 5.7 WNW 6 8 1021.8 - 0.0 - - 10 - - - -
19/10:00pm 8.5 W 9 13 1021.8 - 0.0 - Partly cloudy 10 - - - -
19/09:30pm 8.6 WSW 9 12 1021.8 - 0.0 - Partly cloudy 10 - - - -
19/09:00pm 8.9 WSW 12 17 1021.7 - 0.0 - - 10 - - - -
19/08:30pm 9.1 WSW 10 14 1021.4 - 0.0 - Partly cloudy 10 - - - -
19/08:00pm 9.2 WSW 14 18 1020.8 - 0.0 - Partly cloudy 10 - - - -
19/07:30pm 9.5 SW 12 15 1020.9 - 0.0 - - 10 - - - -
19/07:00pm 9.2 SW 10 13 1020.3 - 0.0 - Partly cloudy 10 - - - -
19/06:30pm 10.2 WSW 9 12 1020.0 - 0.0 - Partly cloudy 10 - - - -
19/06:00pm 10.7 WSW 14 18 1019.7 - 0.0 - - 10 - - - -
19/05:30pm 11.7 WSW 15 21 1019.5 - 0.0 - Partly cloudy 10 - - - -
19/05:00pm 12.9 WSW 16 22 1019.0 - 0.0 - Partly cloudy 10 - - - -
19/04:36pm 12.6 WSW 21 31 1018.6 - 0.0 - Partly cloudy 10 - - - -
19/04:30pm 12.9 WSW 21 27 1018.5 - 0.0 - Partly cloudy 10 - - - -
19/04:00pm 13.3 WSW 17 27 1018.2 - 0.0 - Partly cloudy 10 - - - -
19/03:31pm 13.6 WSW 22 34 1017.9 - 0.0 - Partly cloudy 10 - - - -
19/03:30pm 14.1 WSW 21 30 1017.9 - 0.0 - Partly cloudy 10 - - - -
19/03:01pm 13.3 WSW 19 30 1017.5 - 0.0 - Partly cloudy 10 - - - -
19/03:00pm 14.1 WSW 19 26 1017.5 - 0.0 - Mostly clear 10 - - - -
19/02:37pm 12.9 WSW 15 25 1017.7 - 0.0 - Partly cloudy 10 - - - -
19/02:30pm 12.7 WSW 15 21 1017.8 - 0.0 - Partly cloudy 10 - - - -
19/02:28pm 12.6 WSW 15 25 1017.8 - 0.0 - Partly cloudy 10 - - - -
19/02:00pm 13.9 WSW 18 26 1017.3 - 0.0 - Partly cloudy 10 - - - -
19/01:30pm 11.6 WSW 23 32 1017.3 - 0.0 - Partly cloudy 10 - - - -
19/01:05pm 14.3 WSW 17 29 1016.9 - 0.0 - Partly cloudy 10 - - - -
19/01:00pm 13.9 WSW 18 25 1017.0 - 0.0 - Partly cloudy 10 - - - -
19/12:30pm 11.1 WSW 17 23 1017.2 - 0.0 - Partly cloudy 10 - - - -
19/12:04pm 13.3 W 20 31 1016.8 - 0.0 - Partly cloudy 10 - - - -
19/12:00pm 13.4 W 20 28 1016.8 - 0.0 - Mostly clear 10 - - - -
19/11:35am 13.2 W 19 29 1016.7 - 0.0 - Partly cloudy 10 - - - -
19/11:30am 12.6 W 21 28 1016.7 - 0.0 - Partly cloudy 10 - - - -
19/11:01am 11.4 WSW 20 32 1016.6 - 0.0 - Partly cloudy 10 - - - -
19/11:00am 12.1 WSW 20 29 1016.6 - 0.0 - Partly cloudy 10 - - - -
19/10:30am 13.0 W 19 32 1016.4 - 0.0 - Partly cloudy 10 - - - -
19/10:26am 12.6 W 20 32 1016.4 - 0.0 - Partly cloudy 10 - - - -
19/10:00am 12.5 WSW 18 26 1016.2 - 0.0 - Partly cloudy 10 - - - -
19/09:36am 11.9 WSW 17 27 1016.2 - 0.0 - Partly cloudy 10 - - - -
19/09:30am 12.1 WSW 15 20 1016.0 - 0.0 - Partly cloudy 10 - - - -
19/09:00am 10.4 WSW 18 26 1016.0 - 0.0 - Mostly cloudy 10 - - - -
19/08:30am 11.8 W 20 31 1015.3 - 0.0 - Partly cloudy 10 - - - -
19/08:00am 11.9 W 17 27 1015.0 - 0.0 - Partly cloudy 10 - - - -
19/07:43am 11.6 W 15 25 1014.8 - 0.0 - Partly cloudy 10 - - - -
19/07:30am 10.9 WSW 15 22 1014.6 - 0.0 - Partly cloudy 10 - - - -
19/07:00am 10.7 WSW 17 25 1014.0 - 0.0 - Partly cloudy 10 - - - -
19/06:33am 10.9 W 15 28 1013.7 - 0.0 - Cloudy 10 - - - -
19/06:30am 10.8 W 12 20 1013.7 - 0.0 - Partly cloudy 10 - - - -
19/06:00am 10.2 W 11 15 1013.0 - 0.0 - Mostly clear 10 - - - -
19/05:30am 9.8 WNW 9 12 1012.2 - 0.0 - - 10 - - - -
19/05:00am 10.3 WSW 13 19 1012.1 - 0.0 - Partly cloudy 10 - - - -
19/04:30am 10.9 W 14 21 1011.5 - 0.0 - - 10 - - - -
19/04:00am 11.7 WNW 12 19 1011.1 - 0.0 - Partly cloudy 10 - - - -
19/03:30am 12.3 WNW 9 13 1011.1 - 0.0 - Cloudy 10 - - - -
19/03:00am 12.7 W 9 12 1010.9 - 0.0 - Cloudy 10 - - - -
19/02:30am 13.3 W 11 18 1011.1 - 0.0 - Partly cloudy 10 - - - -
19/02:00am 13.4 WNW 15 23 1011.0 - 0.0 - Partly cloudy 10 - - - -
19/01:30am 12.4 WNW 15 24 1010.5 - 0.0 - Partly cloudy 10 - - - -
19/01:00am 13.3 WSW 15 23 1010.4 - 0.0 - Partly cloudy 10 - - - -
19/12:56am 13.4 WSW 15 23 1010.4 - 0.0 - Partly cloudy 10 - - - -
19/12:30am 12.3 NW 2 4 1010.1 - 0.0 - Partly cloudy 10 - - - -
19/12:00am 13.2 W 6 9 1009.8 - 0.0 - Cloudy 10 - - - -
 
Date/Time
EST
Temp
°C
Wind Pressure Rain since
9am
mm
Weather Cloud Vis
km
Sea
Height
m
Swell
Dir  Spd
kts
Gust
kts
hPa Trend Height
m
Period
s
Dir
18/11:30pm 12.5 WSW 7 10 1009.7 - 0.0 - Partly cloudy 10 - - - -
18/11:00pm 12.8 SW 10 13 1009.6 - 0.0 - - 10 - - - -
18/10:30pm 14.6 SW 14 19 1010.0 - 0.0 - - 10 - - - -
18/10:06pm 15.3 W 11 24 1009.4 - 0.0 - - 10 - - - -
18/10:00pm 10.0 WNW 6 14 1009.1 - 0.0 - Partly cloudy 10 - - - -
18/09:30pm 14.5 NE 6 8 1008.4 - 0.0 - - 10 - - - -
18/09:00pm 14.1 NE 7 9 1008.8 - 0.0 - - 10 - - - -
18/08:30pm 14.4 NE 8 10 1009.1 - 0.0 - - 10 - - - -
18/08:00pm 16.0 NE 10 12 1009.4 - 0.0 - - 10 - - - -
18/07:30pm 17.7 NNE 10 13 1009.5 - 0.0 - - 10 - - - -
18/07:00pm 16.7 NNE 4 7 1009.9 - 0.0 - - 10 - - - -
18/06:30pm 17.3 NW 5 7 1010.0 - 0.0 - - 10 - - - -
18/06:00pm 19.1 NNE 7 12 1009.9 - 0.0 - - 10 - - - -
18/05:30pm 20.6 N 9 14 1009.6 - 0.0 - - 10 - - - -
18/05:00pm 21.8 NNW 8 12 1009.3 - 0.0 - - 10 - - - -
18/04:30pm 22.2 N 10 14 1009.2 - 0.0 - - 10 - - - -
18/04:00pm 22.4 NNW 12 18 1009.4 - 0.0 - - 10 - - - -
18/03:30pm 22.5 NW 10 16 1009.5 - 0.0 - - 10 - - - -
18/03:00pm 23.5 NW 13 17 1009.7 - 0.0 - - 10 - - - -
18/02:30pm 23.3 NNW 18 27 1009.8 - 0.0 - - 10 - - - -
18/02:24pm 23.5 NNW 17 27 1009.8 - 0.0 - - 10 - - - -
18/02:00pm 23.8 NNW 15 21 1010.0 - 0.0 - - 10 - - - -
18/01:30pm 24.0 NNW 16 26 1010.5 - 0.0 - - 10 - - - -
18/01:00pm 23.8 NNW 16 27 1011.0 - 0.0 - - 10 - - - -
18/12:38pm 23.9 NNW 15 26 1011.4 - 0.0 - - 10 - - - -
18/12:30pm 24.2 N 14 22 1011.6 - 0.0 - - 10 - - - -
18/12:00pm 23.6 NNW 13 19 1012.3 - 0.0 - - 10 - - - -
18/11:30am 21.2 NNE 7 10 1013.2 - 0.0 - - 10 - - - -
18/11:00am 20.4 N 9 13 1013.7 - 0.0 - - 10 - - - -
18/10:30am 18.6 NE 9 13 1014.6 - 0.0 - - 10 - - - -
18/10:00am 17.6 NNE 7 13 1015.2 - 0.0 - - 10 - - - -
18/09:30am 15.3 NE 5 8 1015.9 - 0.0 - - 10 - - - -
18/09:00am 14.8 NNE 5 6 1016.5 - 0.2 - - 10 - - - -
18/08:30am 14.5 NNE 4 6 1016.8 - 0.2 - - 10 - - - -
18/08:00am 13.2 NNE 8 11 1016.8 - 0.2 - - 10 - - - -
18/07:30am 11.8 NNE 10 12 1016.8 - 0.2 - - 10 - - - -
18/07:00am 9.4 NNE 13 16 1016.8 - 0.2 - - 10 - - - -
18/06:30am 8.2 NNE 9 13 1016.9 - 0.2 - - 10 - - - -
18/06:00am 6.8 NNE 6 8 1017.2 - 0.2 - - 10 - - - -
18/05:30am 8.3 NNE 7 9 1017.4 - 0.2 - - 10 - - - -
18/05:00am 9.0 N 6 9 1017.4 - 0.2 - - 10 - - - -
18/04:30am 10.6 NNW 10 15 1017.3 - 0.2 - - 10 - - - -
18/04:00am 10.9 N 11 14 1017.5 - 0.2 - - 10 - - - -
18/03:30am 10.4 N 7 9 1018.0 - 0.2 - - 10 - - - -
18/03:00am 9.8 N 6 10 1018.2 - 0.2 - - 10 - - - -
18/02:30am 5.8 NNE 6 7 1018.6 - 0.2 - - 10 - - - -
18/02:00am 7.6 NNE 7 10 1018.8 - 0.2 - - 10 - - - -
18/01:30am 6.8 N 7 9 1019.1 - 0.2 - - 10 - - - -
18/01:00am 4.5 N 6 7 1019.5 - 0.2 - - 10 - - - -
18/12:30am 5.2 N 5 6 1019.7 - 0.2 - - 10 - - - -
18/12:00am 5.5 NNE 7 9 1019.9 - 0.2 - - 10 - - - -
 
Date/Time
EST
Temp
°C
Wind Pressure Rain since
9am
mm
Weather Cloud Vis
km
Sea
Height
m
Swell
Dir  Spd
kts
Gust
kts
hPa Trend Height
m
Period
s
Dir
17/11:30pm 4.8 N 4 5 1020.3 - 0.2 - - 9 - - - -
17/11:00pm 6.3 N 5 7 1020.6 - 0.2 - - 10 - - - -

Other Formats:

Comma delimited format used in spreadsheet applications
http://www.bom.gov.au/fwo/IDV60701/IDV60701.94912.axf

JavaScript Object Notation format (JSON) in row-major order
http://www.bom.gov.au/fwo/IDV60701/IDV60701.94912.json